Whidbey Island Naval Air Station /Ault Field/ Airport
KNUW : now visible

Airfield :











YOU CAN JOIN US ON...

 
LOGIN :

Register | Disclaimer

   EN    FR    IT 

 









Legend :    VFR   Marginal VFR   IFR   Intensive IFR   Very Intensive IFR
Visi :
Ceiling :
>= 8 km
>= 3000ft
5 to 8 km
1000 to 3000 ft
1500m to 5 km
500 to 1000 ft
800 to 1500m
200 to 500 ft
< 800m
< 200 ft
Symbols :   Thunderstorms  Fog  Heavy snow  Heavy precipitations  Wind > 20 kt






- Airport Elevation : 47 ft


KNUW - Whidbey Island Naval Air Station /Ault Field/

CURRENT METAR :
  • 250356Z 26003KT 10SM FEW032 SCT170 BKN250 14/11 A3008 RMK AO2 SLP185 T01440106

EXPIRED METARs :
  • 250256Z 23003KT 10SM CLR 15/11 A3008 RMK AO2 SLP184 T01500106 56004
  • 250156Z 25005KT 10SM FEW035 SCT200 SCT250 15/11 A3008 RMK AO2 SLP184 T01500106

TAF TAF KNUW
Valid from the 24 at 23:00 until the 25 at 23:00 UTC


2423/2523 27007KT 9999 FEW040 SCT160 SCT250 QNH3004INS
FM250400 26006KT 9999 VCFG SCT007 SCT030 BKN250 QNH3004INS
TEMPO 2504/2509 VRB05KT 1600 BR BKN003 BKN007
FM250900 VRB06KT 8000 BR BCFG SCT003 SCT020 BKN250 QNH3008INS
TEMPO 2510/2516 0800 FG OVC003
FM251800 30007KT 9999 FEW020 SCT035 SCT250 QNH3000INS T18/2423Z T13/2513Z FS30046
KZSE FIR / North America



MET'MAP, your aeronautical weather chart ! - Copyright ORBIFLY December 2007 - Disclaimer

ORBIFLY MET'MAP TEAM :

Programming & Development : Alexandra Zaïnal
Concept & original design : Baudouin d'Aumeries
Assistance for programming : Marc-Olivier Méhu
Technical & hardware support : Manuel Goepfert

Contact : metmap@orbifly.com




SOURCES & CREDITS :

   NOAA       Earth
Advisory